sensor_id;sensor_type;location;lat;lon;timestamp;P1;P2;P0
43280;PMS5003;62175;49.416;8.690;2023-04-15T00:01:08;6;5;
43280;PMS5003;62175;49.416;8.690;2023-04-15T00:03:35;5;5;
43280;PMS5003;62175;49.416;8.690;2023-04-15T00:06:03;5;4;
43280;PMS5003;62175;49.416;8.690;2023-04-15T00:08:30;4;4;
43280;PMS5003;62175;49.416;8.690;2023-04-15T00:10:57;8;7;
43280;PMS5003;62175;49.416;8.690;2023-04-15T00:13:24;9;8;
43280;PMS5003;62175;49.416;8.690;2023-04-15T00:15:51;6;5;
43280;PMS5003;62175;49.416;8.690;2023-04-15T00:18:18;3;3;
43280;PMS5003;62175;49.416;8.690;2023-04-15T00:20:45;8;8;
43280;PMS5003;62175;49.416;8.690;2023-04-15T00:23:13;7;6;
43280;PMS5003;62175;49.416;8.690;2023-04-15T00:25:40;8;7;
43280;PMS5003;62175;49.416;8.690;2023-04-15T00:28:07;6;6;
43280;PMS5003;62175;49.416;8.690;2023-04-15T00:30:34;5;5;
43280;PMS5003;62175;49.416;8.690;2023-04-15T00:33:01;7;6;
43280;PMS5003;62175;49.416;8.690;2023-04-15T00:35:28;4;4;
43280;PMS5003;62175;49.416;8.690;2023-04-15T00:37:56;6;5;
43280;PMS5003;62175;49.416;8.690;2023-04-15T00:40:24;6;5;
43280;PMS5003;62175;49.416;8.690;2023-04-15T00:42:51;6;5;
43280;PMS5003;62175;49.416;8.690;2023-04-15T00:45:19;6;6;
43280;PMS5003;62175;49.416;8.690;2023-04-15T00:47:46;4;4;
43280;PMS5003;62175;49.416;8.690;2023-04-15T00:50:13;5;4;
43280;PMS5003;62175;49.416;8.690;2023-04-15T00:52:40;5;5;
43280;PMS5003;62175;49.416;8.690;2023-04-15T00:55:07;6;6;
43280;PMS5003;62175;49.416;8.690;2023-04-15T00:57:36;5;5;
43280;PMS5003;62175;49.416;8.690;2023-04-15T01:00:05;8;7;
43280;PMS5003;62175;49.416;8.690;2023-04-15T01:02:34;5;5;
43280;PMS5003;62175;49.416;8.690;2023-04-15T01:05:02;5;5;
43280;PMS5003;62175;49.416;8.690;2023-04-15T01:07:45;5;4;
43280;PMS5003;62175;49.416;8.690;2023-04-15T01:10:12;3;3;
43280;PMS5003;62175;49.416;8.690;2023-04-15T01:12:40;6;6;
43280;PMS5003;62175;49.416;8.690;2023-04-15T01:15:07;6;6;
43280;PMS5003;62175;49.416;8.690;2023-04-15T01:17:35;5;5;
43280;PMS5003;62175;49.416;8.690;2023-04-15T01:20:02;5;5;
43280;PMS5003;62175;49.416;8.690;2023-04-15T01:22:30;4;4;
43280;PMS5003;62175;49.416;8.690;2023-04-15T01:25:00;6;5;
43280;PMS5003;62175;49.416;8.690;2023-04-15T01:27:32;6;6;
43280;PMS5003;62175;49.416;8.690;2023-04-15T01:30:01;5;5;
43280;PMS5003;62175;49.416;8.690;2023-04-15T01:32:28;5;5;
43280;PMS5003;62175;49.416;8.690;2023-04-15T01:34:55;7;7;
43280;PMS5003;62175;49.416;8.690;2023-04-15T01:37:22;5;5;
43280;PMS5003;62175;49.416;8.690;2023-04-15T01:39:50;6;6;
43280;PMS5003;62175;49.416;8.690;2023-04-15T01:42:17;4;4;
43280;PMS5003;62175;49.416;8.690;2023-04-15T01:44:44;4;4;
43280;PMS5003;62175;49.416;8.690;2023-04-15T01:47:12;5;5;
43280;PMS5003;62175;49.416;8.690;2023-04-15T01:49:39;7;6;
43280;PMS5003;62175;49.416;8.690;2023-04-15T01:52:06;5;4;
43280;PMS5003;62175;49.416;8.690;2023-04-15T01:54:33;6;6;
43280;PMS5003;62175;49.416;8.690;2023-04-15T01:57:00;7;7;
43280;PMS5003;62175;49.416;8.690;2023-04-15T01:59:29;6;6;
43280;PMS5003;62175;49.416;8.690;2023-04-15T02:01:56;6;6;
43280;PMS5003;62175;49.416;8.690;2023-04-15T02:04:23;7;6;
43280;PMS5003;62175;49.416;8.690;2023-04-15T02:06:50;6;6;
43280;PMS5003;62175;49.416;8.690;2023-04-15T02:09:18;4;4;
43280;PMS5003;62175;49.416;8.690;2023-04-15T02:11:45;5;4;
43280;PMS5003;62175;49.416;8.690;2023-04-15T02:14:12;5;5;
43280;PMS5003;62175;49.416;8.690;2023-04-15T02:16:39;6;6;
43280;PMS5003;62175;49.416;8.690;2023-04-15T02:19:07;5;5;
43280;PMS5003;62175;49.416;8.690;2023-04-15T02:21:34;6;5;
43280;PMS5003;62175;49.416;8.690;2023-04-15T02:24:01;6;6;
43280;PMS5003;62175;49.416;8.690;2023-04-15T02:26:29;6;6;
43280;PMS5003;62175;49.416;8.690;2023-04-15T02:28:56;6;6;
43280;PMS5003;62175;49.416;8.690;2023-04-15T02:31:23;6;6;
43280;PMS5003;62175;49.416;8.690;2023-04-15T02:33:50;6;5;
43280;PMS5003;62175;49.416;8.690;2023-04-15T02:36:17;5;5;
43280;PMS5003;62175;49.416;8.690;2023-04-15T02:38:45;7;6;
43280;PMS5003;62175;49.416;8.690;2023-04-15T02:41:12;6;6;
43280;PMS5003;62175;49.416;8.690;2023-04-15T02:43:39;5;4;
43280;PMS5003;62175;49.416;8.690;2023-04-15T02:46:06;7;6;
43280;PMS5003;62175;49.416;8.690;2023-04-15T02:48:34;6;6;
43280;PMS5003;62175;49.416;8.690;2023-04-15T02:51:17;5;5;
43280;PMS5003;62175;49.416;8.690;2023-04-15T02:53:46;8;6;
43280;PMS5003;62175;49.416;8.690;2023-04-15T02:56:14;6;6;
43280;PMS5003;62175;49.416;8.690;2023-04-15T02:58:42;5;5;
43280;PMS5003;62175;49.416;8.690;2023-04-15T03:01:10;5;5;
43280;PMS5003;62175;49.416;8.690;2023-04-15T03:03:37;6;5;
43280;PMS5003;62175;49.416;8.690;2023-04-15T03:06:04;6;5;
43280;PMS5003;62175;49.416;8.690;2023-04-15T03:08:32;6;6;
43280;PMS5003;62175;49.416;8.690;2023-04-15T03:10:59;3;3;
43280;PMS5003;62175;49.416;8.690;2023-04-15T03:13:26;5;5;
43280;PMS5003;62175;49.416;8.690;2023-04-15T03:15:53;6;6;
43280;PMS5003;62175;49.416;8.690;2023-04-15T03:18:21;7;7;
43280;PMS5003;62175;49.416;8.690;2023-04-15T03:20:48;7;6;
43280;PMS5003;62175;49.416;8.690;2023-04-15T03:23:15;5;4;
43280;PMS5003;62175;49.416;8.690;2023-04-15T03:25:43;7;6;
43280;PMS5003;62175;49.416;8.690;2023-04-15T03:28:11;5;5;
43280;PMS5003;62175;49.416;8.690;2023-04-15T03:30:38;6;6;
43280;PMS5003;62175;49.416;8.690;2023-04-15T03:33:06;7;5;
43280;PMS5003;62175;49.416;8.690;2023-04-15T03:35:33;5;5;
43280;PMS5003;62175;49.416;8.690;2023-04-15T03:38:01;7;7;
43280;PMS5003;62175;49.416;8.690;2023-04-15T03:40:28;5;4;
43280;PMS5003;62175;49.416;8.690;2023-04-15T03:42:55;5;5;
43280;PMS5003;62175;49.416;8.690;2023-04-15T03:45:22;7;6;
43280;PMS5003;62175;49.416;8.690;2023-04-15T03:47:50;6;6;
43280;PMS5003;62175;49.416;8.690;2023-04-15T03:50:17;6;6;
43280;PMS5003;62175;49.416;8.690;2023-04-15T03:52:44;6;6;
43280;PMS5003;62175;49.416;8.690;2023-04-15T03:55:11;5;5;
43280;PMS5003;62175;49.416;8.690;2023-04-15T03:57:39;5;5;
43280;PMS5003;62175;49.416;8.690;2023-04-15T04:00:08;7;6;
43280;PMS5003;62175;49.416;8.690;2023-04-15T04:02:35;5;5;
43280;PMS5003;62175;49.416;8.690;2023-04-15T04:05:03;6;5;
43280;PMS5003;62175;49.416;8.690;2023-04-15T04:07:30;6;5;
43280;PMS5003;62175;49.416;8.690;2023-04-15T04:09:58;4;4;
43280;PMS5003;62175;49.416;8.690;2023-04-15T04:12:25;5;5;
43280;PMS5003;62175;49.416;8.690;2023-04-15T04:14:55;7;5;
43280;PMS5003;62175;49.416;8.690;2023-04-15T04:17:22;8;8;
43280;PMS5003;62175;49.416;8.690;2023-04-15T04:19:49;4;4;
43280;PMS5003;62175;49.416;8.690;2023-04-15T04:22:16;6;5;
43280;PMS5003;62175;49.416;8.690;2023-04-15T04:24:47;6;5;
43280;PMS5003;62175;49.416;8.690;2023-04-15T04:27:14;4;4;
43280;PMS5003;62175;49.416;8.690;2023-04-15T04:29:42;7;6;
43280;PMS5003;62175;49.416;8.690;2023-04-15T04:32:09;6;5;
43280;PMS5003;62175;49.416;8.690;2023-04-15T04:34:37;5;5;
43280;PMS5003;62175;49.416;8.690;2023-04-15T04:37:04;7;6;
43280;PMS5003;62175;49.416;8.690;2023-04-15T04:39:32;5;5;
43280;PMS5003;62175;49.416;8.690;2023-04-15T04:42:00;6;6;
43280;PMS5003;62175;49.416;8.690;2023-04-15T04:44:27;6;5;
43280;PMS5003;62175;49.416;8.690;2023-04-15T04:46:55;5;5;
43280;PMS5003;62175;49.416;8.690;2023-04-15T04:49:22;10;9;
43280;PMS5003;62175;49.416;8.690;2023-04-15T04:51:50;7;6;
43280;PMS5003;62175;49.416;8.690;2023-04-15T04:54:17;10;9;
43280;PMS5003;62175;49.416;8.690;2023-04-15T04:56:45;6;6;
43280;PMS5003;62175;49.416;8.690;2023-04-15T04:59:12;5;5;
43280;PMS5003;62175;49.416;8.690;2023-04-15T05:01:40;6;5;
43280;PMS5003;62175;49.416;8.690;2023-04-15T05:04:08;6;6;
43280;PMS5003;62175;49.416;8.690;2023-04-15T05:06:36;6;6;
43280;PMS5003;62175;49.416;8.690;2023-04-15T05:09:03;5;5;
43280;PMS5003;62175;49.416;8.690;2023-04-15T05:11:30;6;6;
43280;PMS5003;62175;49.416;8.690;2023-04-15T05:13:58;7;6;
43280;PMS5003;62175;49.416;8.690;2023-04-15T05:16:27;7;6;
43280;PMS5003;62175;49.416;8.690;2023-04-15T05:18:55;6;5;
43280;PMS5003;62175;49.416;8.690;2023-04-15T05:21:22;7;5;
43280;PMS5003;62175;49.416;8.690;2023-04-15T05:23:50;6;6;
43280;PMS5003;62175;49.416;8.690;2023-04-15T05:26:19;7;7;
43280;PMS5003;62175;49.416;8.690;2023-04-15T05:28:46;7;6;
43280;PMS5003;62175;49.416;8.690;2023-04-15T05:31:14;7;7;
43280;PMS5003;62175;49.416;8.690;2023-04-15T05:33:43;7;7;
43280;PMS5003;62175;49.416;8.690;2023-04-15T05:36:10;9;8;
43280;PMS5003;62175;49.416;8.690;2023-04-15T05:38:37;6;6;
43280;PMS5003;62175;49.416;8.690;2023-04-15T05:41:05;7;6;
43280;PMS5003;62175;49.416;8.690;2023-04-15T05:43:33;7;7;
43280;PMS5003;62175;49.416;8.690;2023-04-15T05:46:00;7;7;
43280;PMS5003;62175;49.416;8.690;2023-04-15T05:48:27;8;8;
43280;PMS5003;62175;49.416;8.690;2023-04-15T05:50:55;7;7;
43280;PMS5003;62175;49.416;8.690;2023-04-15T05:53:22;6;6;
43280;PMS5003;62175;49.416;8.690;2023-04-15T05:55:51;6;6;
43280;PMS5003;62175;49.416;8.690;2023-04-15T05:58:19;9;7;
43280;PMS5003;62175;49.416;8.690;2023-04-15T06:00:46;5;5;
43280;PMS5003;62175;49.416;8.690;2023-04-15T06:03:13;9;8;
43280;PMS5003;62175;49.416;8.690;2023-04-15T06:05:41;7;6;
43280;PMS5003;62175;49.416;8.690;2023-04-15T06:08:08;8;8;
43280;PMS5003;62175;49.416;8.690;2023-04-15T06:10:36;11;10;
43280;PMS5003;62175;49.416;8.690;2023-04-15T06:13:03;10;9;
43280;PMS5003;62175;49.416;8.690;2023-04-15T06:15:30;8;8;
43280;PMS5003;62175;49.416;8.690;2023-04-15T06:17:58;9;8;
43280;PMS5003;62175;49.416;8.690;2023-04-15T06:20:25;8;8;
43280;PMS5003;62175;49.416;8.690;2023-04-15T06:22:52;9;9;
43280;PMS5003;62175;49.416;8.690;2023-04-15T06:25:19;9;8;
43280;PMS5003;62175;49.416;8.690;2023-04-15T06:27:46;9;9;
43280;PMS5003;62175;49.416;8.690;2023-04-15T06:30:14;13;10;
43280;PMS5003;62175;49.416;8.690;2023-04-15T06:32:41;8;8;
43280;PMS5003;62175;49.416;8.690;2023-04-15T06:35:09;10;8;
43280;PMS5003;62175;49.416;8.690;2023-04-15T06:37:36;9;8;
43280;PMS5003;62175;49.416;8.690;2023-04-15T06:40:04;10;9;
43280;PMS5003;62175;49.416;8.690;2023-04-15T06:42:32;9;8;
43280;PMS5003;62175;49.416;8.690;2023-04-15T06:45:00;9;9;
43280;PMS5003;62175;49.416;8.690;2023-04-15T06:47:29;11;10;
43280;PMS5003;62175;49.416;8.690;2023-04-15T06:49:57;9;9;
43280;PMS5003;62175;49.416;8.690;2023-04-15T06:52:24;11;10;
43280;PMS5003;62175;49.416;8.690;2023-04-15T06:54:51;11;11;
43280;PMS5003;62175;49.416;8.690;2023-04-15T06:57:19;11;11;
43280;PMS5003;62175;49.416;8.690;2023-04-15T06:59:46;13;11;
43280;PMS5003;62175;49.416;8.690;2023-04-15T07:02:14;12;12;
43280;PMS5003;62175;49.416;8.690;2023-04-15T07:04:42;10;10;
43280;PMS5003;62175;49.416;8.690;2023-04-15T07:07:09;14;11;
43280;PMS5003;62175;49.416;8.690;2023-04-15T07:09:37;10;10;
43280;PMS5003;62175;49.416;8.690;2023-04-15T07:12:05;12;11;
43280;PMS5003;62175;49.416;8.690;2023-04-15T07:14:32;10;9;
43280;PMS5003;62175;49.416;8.690;2023-04-15T07:17:00;11;10;
43280;PMS5003;62175;49.416;8.690;2023-04-15T07:19:28;12;10;
43280;PMS5003;62175;49.416;8.690;2023-04-15T07:21:56;10;9;
43280;PMS5003;62175;49.416;8.690;2023-04-15T07:24:23;8;8;
43280;PMS5003;62175;49.416;8.690;2023-04-15T07:26:51;10;7;
43280;PMS5003;62175;49.416;8.690;2023-04-15T07:29:19;11;10;
43280;PMS5003;62175;49.416;8.690;2023-04-15T07:31:46;10;10;
43280;PMS5003;62175;49.416;8.690;2023-04-15T07:34:13;11;10;
43280;PMS5003;62175;49.416;8.690;2023-04-15T07:36:41;9;8;
43280;PMS5003;62175;49.416;8.690;2023-04-15T07:39:11;9;9;
43280;PMS5003;62175;49.416;8.690;2023-04-15T07:41:39;13;12;
43280;PMS5003;62175;49.416;8.690;2023-04-15T07:44:06;9;8;
43280;PMS5003;62175;49.416;8.690;2023-04-15T07:46:34;12;12;
43280;PMS5003;62175;49.416;8.690;2023-04-15T07:49:01;10;9;
43280;PMS5003;62175;49.416;8.690;2023-04-15T07:51:28;13;11;
43280;PMS5003;62175;49.416;8.690;2023-04-15T07:53:56;10;9;
43280;PMS5003;62175;49.416;8.690;2023-04-15T07:56:23;10;10;
43280;PMS5003;62175;49.416;8.690;2023-04-15T07:58:50;11;9;
43280;PMS5003;62175;49.416;8.690;2023-04-15T08:01:17;13;13;
43280;PMS5003;62175;49.416;8.690;2023-04-15T08:03:44;14;13;
43280;PMS5003;62175;49.416;8.690;2023-04-15T08:06:12;16;16;
43280;PMS5003;62175;49.416;8.690;2023-04-15T08:08:39;13;12;
43280;PMS5003;62175;49.416;8.690;2023-04-15T08:11:06;13;12;
43280;PMS5003;62175;49.416;8.690;2023-04-15T08:13:34;13;13;
43280;PMS5003;62175;49.416;8.690;2023-04-15T08:16:17;15;15;
43280;PMS5003;62175;49.416;8.690;2023-04-15T08:18:47;16;14;
43280;PMS5003;62175;49.416;8.690;2023-04-15T08:21:15;16;14;
43280;PMS5003;62175;49.416;8.690;2023-04-15T08:23:43;13;12;
43280;PMS5003;62175;49.416;8.690;2023-04-15T08:26:12;12;11;
43280;PMS5003;62175;49.416;8.690;2023-04-15T08:28:39;12;12;
43280;PMS5003;62175;49.416;8.690;2023-04-15T08:31:08;16;14;
43280;PMS5003;62175;49.416;8.690;2023-04-15T08:33:35;11;11;
43280;PMS5003;62175;49.416;8.690;2023-04-15T08:36:03;11;10;
43280;PMS5003;62175;49.416;8.690;2023-04-15T08:38:30;11;11;
43280;PMS5003;62175;49.416;8.690;2023-04-15T08:40:59;9;9;
43280;PMS5003;62175;49.416;8.690;2023-04-15T08:43:32;13;12;
43280;PMS5003;62175;49.416;8.690;2023-04-15T08:46:01;16;12;
43280;PMS5003;62175;49.416;8.690;2023-04-15T08:48:31;12;11;
43280;PMS5003;62175;49.416;8.690;2023-04-15T08:50:59;13;11;
43280;PMS5003;62175;49.416;8.690;2023-04-15T08:53:27;11;10;
43280;PMS5003;62175;49.416;8.690;2023-04-15T08:55:56;12;11;
43280;PMS5003;62175;49.416;8.690;2023-04-15T08:58:25;12;12;
43280;PMS5003;62175;49.416;8.690;2023-04-15T09:00:52;11;10;
43280;PMS5003;62175;49.416;8.690;2023-04-15T09:03:22;12;11;
43280;PMS5003;62175;49.416;8.690;2023-04-15T09:05:49;13;12;
43280;PMS5003;62175;49.416;8.690;2023-04-15T09:08:16;14;13;
43280;PMS5003;62175;49.416;8.690;2023-04-15T09:10:43;10;9;
43280;PMS5003;62175;49.416;8.690;2023-04-15T09:13:11;14;11;
43280;PMS5003;62175;49.416;8.690;2023-04-15T09:15:39;18;15;
43280;PMS5003;62175;49.416;8.690;2023-04-15T09:18:08;11;11;
43280;PMS5003;62175;49.416;8.690;2023-04-15T09:20:47;12;12;
43280;PMS5003;62175;49.416;8.690;2023-04-15T09:23:19;14;13;
43280;PMS5003;62175;49.416;8.690;2023-04-15T09:25:46;14;14;
43280;PMS5003;62175;49.416;8.690;2023-04-15T09:28:14;15;14;
43280;PMS5003;62175;49.416;8.690;2023-04-15T09:30:51;12;11;
43280;PMS5003;62175;49.416;8.690;2023-04-15T09:33:21;12;12;
43280;PMS5003;62175;49.416;8.690;2023-04-15T09:35:56;15;14;
43280;PMS5003;62175;49.416;8.690;2023-04-15T09:38:24;10;10;
43280;PMS5003;62175;49.416;8.690;2023-04-15T09:40:51;12;11;
43280;PMS5003;62175;49.416;8.690;2023-04-15T09:43:19;13;13;
43280;PMS5003;62175;49.416;8.690;2023-04-15T09:45:47;14;12;
43280;PMS5003;62175;49.416;8.690;2023-04-15T09:48:15;11;10;
43280;PMS5003;62175;49.416;8.690;2023-04-15T09:50:44;14;12;
43280;PMS5003;62175;49.416;8.690;2023-04-15T09:53:14;14;13;
43280;PMS5003;62175;49.416;8.690;2023-04-15T09:55:44;12;10;
43280;PMS5003;62175;49.416;8.690;2023-04-15T09:58:17;11;11;
43280;PMS5003;62175;49.416;8.690;2023-04-15T10:00:46;9;9;
43280;PMS5003;62175;49.416;8.690;2023-04-15T10:03:14;9;8;
43280;PMS5003;62175;49.416;8.690;2023-04-15T10:05:46;8;8;
43280;PMS5003;62175;49.416;8.690;2023-04-15T10:08:16;10;8;
43280;PMS5003;62175;49.416;8.690;2023-04-15T10:10:45;10;9;
43280;PMS5003;62175;49.416;8.690;2023-04-15T10:13:13;9;8;
43280;PMS5003;62175;49.416;8.690;2023-04-15T10:15:43;9;9;
43280;PMS5003;62175;49.416;8.690;2023-04-15T10:18:11;13;11;
43280;PMS5003;62175;49.416;8.690;2023-04-15T10:20:40;8;8;
43280;PMS5003;62175;49.416;8.690;2023-04-15T10:23:08;10;9;
43280;PMS5003;62175;49.416;8.690;2023-04-15T10:25:36;12;11;
43280;PMS5003;62175;49.416;8.690;2023-04-15T10:28:05;11;11;
43280;PMS5003;62175;49.416;8.690;2023-04-15T10:30:33;13;12;
43280;PMS5003;62175;49.416;8.690;2023-04-15T10:33:01;12;12;
43280;PMS5003;62175;49.416;8.690;2023-04-15T10:35:30;10;9;
43280;PMS5003;62175;49.416;8.690;2023-04-15T10:37:58;10;10;
43280;PMS5003;62175;49.416;8.690;2023-04-15T10:40:27;12;11;
43280;PMS5003;62175;49.416;8.690;2023-04-15T10:42:57;12;11;
43280;PMS5003;62175;49.416;8.690;2023-04-15T10:45:26;9;9;
43280;PMS5003;62175;49.416;8.690;2023-04-15T10:47:57;13;11;
43280;PMS5003;62175;49.416;8.690;2023-04-15T10:50:27;12;10;
43280;PMS5003;62175;49.416;8.690;2023-04-15T10:52:56;11;10;
43280;PMS5003;62175;49.416;8.690;2023-04-15T10:55:25;11;11;
43280;PMS5003;62175;49.416;8.690;2023-04-15T10:57:58;9;8;
43280;PMS5003;62175;49.416;8.690;2023-04-15T11:00:28;14;12;
43280;PMS5003;62175;49.416;8.690;2023-04-15T11:02:57;9;9;
43280;PMS5003;62175;49.416;8.690;2023-04-15T11:05:48;9;9;
43280;PMS5003;62175;49.416;8.690;2023-04-15T11:08:16;9;9;
43280;PMS5003;62175;49.416;8.690;2023-04-15T11:10:52;7;7;
43280;PMS5003;62175;49.416;8.690;2023-04-15T11:13:21;7;5;
43280;PMS5003;62175;49.416;8.690;2023-04-15T11:15:53;5;5;
43280;PMS5003;62175;49.416;8.690;2023-04-15T11:18:24;6;5;
43280;PMS5003;62175;49.416;8.690;2023-04-15T11:20:55;5;5;
43280;PMS5003;62175;49.416;8.690;2023-04-15T11:23:27;8;8;
43280;PMS5003;62175;49.416;8.690;2023-04-15T11:25:58;5;5;
43280;PMS5003;62175;49.416;8.690;2023-04-15T11:28:26;4;4;
43280;PMS5003;62175;49.416;8.690;2023-04-15T11:30:54;3;3;
43280;PMS5003;62175;49.416;8.690;2023-04-15T11:33:22;6;5;
43280;PMS5003;62175;49.416;8.690;2023-04-15T11:35:51;4;4;
43280;PMS5003;62175;49.416;8.690;2023-04-15T11:38:19;4;4;
43280;PMS5003;62175;49.416;8.690;2023-04-15T11:40:46;4;4;
43280;PMS5003;62175;49.416;8.690;2023-04-15T11:43:16;3;3;
43280;PMS5003;62175;49.416;8.690;2023-04-15T11:45:48;4;4;
43280;PMS5003;62175;49.416;8.690;2023-04-15T11:48:17;7;6;
43280;PMS5003;62175;49.416;8.690;2023-04-15T11:50:51;5;4;
43280;PMS5003;62175;49.416;8.690;2023-04-15T11:53:20;4;4;
43280;PMS5003;62175;49.416;8.690;2023-04-15T11:55:49;3;3;
43280;PMS5003;62175;49.416;8.690;2023-04-15T11:58:18;3;3;
43280;PMS5003;62175;49.416;8.690;2023-04-15T12:00:48;4;3;
43280;PMS5003;62175;49.416;8.690;2023-04-15T12:03:17;4;4;
43280;PMS5003;62175;49.416;8.690;2023-04-15T12:06:04;3;2;
43280;PMS5003;62175;49.416;8.690;2023-04-15T12:09:37;3;3;
43280;PMS5003;62175;49.416;8.690;2023-04-15T12:12:04;5;5;
43280;PMS5003;62175;49.416;8.690;2023-04-15T12:14:31;4;4;
43280;PMS5003;62175;49.416;8.690;2023-04-15T12:16:59;6;4;
43280;PMS5003;62175;49.416;8.690;2023-04-15T12:19:28;4;4;
43280;PMS5003;62175;49.416;8.690;2023-04-15T12:21:57;4;3;
43280;PMS5003;62175;49.416;8.690;2023-04-15T12:24:26;4;4;
43280;PMS5003;62175;49.416;8.690;2023-04-15T12:26:54;6;6;
43280;PMS5003;62175;49.416;8.690;2023-04-15T12:29:24;5;4;
43280;PMS5003;62175;49.416;8.690;2023-04-15T12:31:53;4;4;
43280;PMS5003;62175;49.416;8.690;2023-04-15T12:34:26;4;4;
43280;PMS5003;62175;49.416;8.690;2023-04-15T12:36:54;3;2;
43280;PMS5003;62175;49.416;8.690;2023-04-15T12:39:22;5;5;
43280;PMS5003;62175;49.416;8.690;2023-04-15T12:41:50;3;3;
43280;PMS5003;62175;49.416;8.690;2023-04-15T12:44:18;3;3;
43280;PMS5003;62175;49.416;8.690;2023-04-15T12:46:46;3;3;
43280;PMS5003;62175;49.416;8.690;2023-04-15T12:49:13;3;3;
43280;PMS5003;62175;49.416;8.690;2023-04-15T12:51:40;5;5;
43280;PMS5003;62175;49.416;8.690;2023-04-15T12:54:07;3;3;
43280;PMS5003;62175;49.416;8.690;2023-04-15T12:56:34;6;5;
43280;PMS5003;62175;49.416;8.690;2023-04-15T12:59:01;5;5;
43280;PMS5003;62175;49.416;8.690;2023-04-15T13:01:28;1;1;
43280;PMS5003;62175;49.416;8.690;2023-04-15T13:03:56;3;3;
43280;PMS5003;62175;49.416;8.690;2023-04-15T13:06:23;3;3;
43280;PMS5003;62175;49.416;8.690;2023-04-15T13:08:51;3;2;
43280;PMS5003;62175;49.416;8.690;2023-04-15T13:11:18;3;2;
43280;PMS5003;62175;49.416;8.690;2023-04-15T13:13:45;2;2;
43280;PMS5003;62175;49.416;8.690;2023-04-15T13:16:12;3;3;
43280;PMS5003;62175;49.416;8.690;2023-04-15T13:18:39;3;3;
43280;PMS5003;62175;49.416;8.690;2023-04-15T13:21:07;4;4;
43280;PMS5003;62175;49.416;8.690;2023-04-15T13:23:33;2;2;
43280;PMS5003;62175;49.416;8.690;2023-04-15T13:26:01;4;4;
43280;PMS5003;62175;49.416;8.690;2023-04-15T13:28:28;4;3;
43280;PMS5003;62175;49.416;8.690;2023-04-15T13:30:55;3;3;
43280;PMS5003;62175;49.416;8.690;2023-04-15T13:33:22;4;4;
43280;PMS5003;62175;49.416;8.690;2023-04-15T13:35:49;3;3;
43280;PMS5003;62175;49.416;8.690;2023-04-15T13:38:16;2;2;
43280;PMS5003;62175;49.416;8.690;2023-04-15T13:40:43;4;3;
43280;PMS5003;62175;49.416;8.690;2023-04-15T13:43:10;3;3;
43280;PMS5003;62175;49.416;8.690;2023-04-15T13:45:38;3;3;
43280;PMS5003;62175;49.416;8.690;2023-04-15T13:48:05;1;1;
43280;PMS5003;62175;49.416;8.690;2023-04-15T13:50:32;4;3;
43280;PMS5003;62175;49.416;8.690;2023-04-15T13:52:59;2;2;
43280;PMS5003;62175;49.416;8.690;2023-04-15T13:55:26;4;4;
43280;PMS5003;62175;49.416;8.690;2023-04-15T13:57:55;3;3;
43280;PMS5003;62175;49.416;8.690;2023-04-15T14:00:22;2;1;
43280;PMS5003;62175;49.416;8.690;2023-04-15T14:02:49;2;1;
43280;PMS5003;62175;49.416;8.690;2023-04-15T14:05:17;2;2;
43280;PMS5003;62175;49.416;8.690;2023-04-15T14:07:44;2;2;
43280;PMS5003;62175;49.416;8.690;2023-04-15T14:10:11;2;2;
43280;PMS5003;62175;49.416;8.690;2023-04-15T14:12:39;2;1;
43280;PMS5003;62175;49.416;8.690;2023-04-15T14:15:08;1;1;
43280;PMS5003;62175;49.416;8.690;2023-04-15T14:17:35;3;1;
43280;PMS5003;62175;49.416;8.690;2023-04-15T14:20:06;1;1;
43280;PMS5003;62175;49.416;8.690;2023-04-15T14:22:34;1;0;
43280;PMS5003;62175;49.416;8.690;2023-04-15T14:25:00;2;1;
43280;PMS5003;62175;49.416;8.690;2023-04-15T14:27:27;1;1;
43280;PMS5003;62175;49.416;8.690;2023-04-15T14:29:55;2;1;
43280;PMS5003;62175;49.416;8.690;2023-04-15T14:32:23;1;1;
43280;PMS5003;62175;49.416;8.690;2023-04-15T14:34:51;2;2;
43280;PMS5003;62175;49.416;8.690;2023-04-15T14:37:18;2;2;
43280;PMS5003;62175;49.416;8.690;2023-04-15T14:39:45;3;3;
43280;PMS5003;62175;49.416;8.690;2023-04-15T14:42:12;2;2;
43280;PMS5003;62175;49.416;8.690;2023-04-15T14:44:39;3;3;
43280;PMS5003;62175;49.416;8.690;2023-04-15T14:47:06;4;2;
43280;PMS5003;62175;49.416;8.690;2023-04-15T14:49:34;3;3;
43280;PMS5003;62175;49.416;8.690;2023-04-15T14:52:01;3;3;
43280;PMS5003;62175;49.416;8.690;2023-04-15T14:54:28;2;2;
43280;PMS5003;62175;49.416;8.690;2023-04-15T14:56:55;4;3;
43280;PMS5003;62175;49.416;8.690;2023-04-15T14:59:22;2;2;
43280;PMS5003;62175;49.416;8.690;2023-04-15T15:01:49;3;3;
43280;PMS5003;62175;49.416;8.690;2023-04-15T15:04:17;2;2;
43280;PMS5003;62175;49.416;8.690;2023-04-15T15:06:45;3;2;
43280;PMS5003;62175;49.416;8.690;2023-04-15T15:09:12;4;4;
43280;PMS5003;62175;49.416;8.690;2023-04-15T15:11:39;3;3;
43280;PMS5003;62175;49.416;8.690;2023-04-15T15:14:06;2;2;
43280;PMS5003;62175;49.416;8.690;2023-04-15T15:16:33;3;3;
43280;PMS5003;62175;49.416;8.690;2023-04-15T15:19:01;2;2;
43280;PMS5003;62175;49.416;8.690;2023-04-15T15:21:29;2;2;
43280;PMS5003;62175;49.416;8.690;2023-04-15T15:23:56;3;2;
43280;PMS5003;62175;49.416;8.690;2023-04-15T15:26:23;2;2;
43280;PMS5003;62175;49.416;8.690;2023-04-15T15:28:50;1;1;
43280;PMS5003;62175;49.416;8.690;2023-04-15T15:31:17;3;2;
43280;PMS5003;62175;49.416;8.690;2023-04-15T15:33:44;2;2;
43280;PMS5003;62175;49.416;8.690;2023-04-15T15:36:12;3;2;
43280;PMS5003;62175;49.416;8.690;2023-04-15T15:38:39;2;2;
43280;PMS5003;62175;49.416;8.690;2023-04-15T15:41:06;2;2;
43280;PMS5003;62175;49.416;8.690;2023-04-15T15:43:33;1;1;
43280;PMS5003;62175;49.416;8.690;2023-04-15T15:46:00;1;1;
43280;PMS5003;62175;49.416;8.690;2023-04-15T15:48:29;2;2;
43280;PMS5003;62175;49.416;8.690;2023-04-15T15:50:56;1;1;
43280;PMS5003;62175;49.416;8.690;2023-04-15T15:53:23;1;1;
43280;PMS5003;62175;49.416;8.690;2023-04-15T15:55:50;2;2;
43280;PMS5003;62175;49.416;8.690;2023-04-15T15:58:17;2;2;
43280;PMS5003;62175;49.416;8.690;2023-04-15T16:00:45;2;2;
43280;PMS5003;62175;49.416;8.690;2023-04-15T16:03:12;3;3;
43280;PMS5003;62175;49.416;8.690;2023-04-15T16:05:41;0;0;
43280;PMS5003;62175;49.416;8.690;2023-04-15T16:08:08;2;2;
43280;PMS5003;62175;49.416;8.690;2023-04-15T16:10:35;2;2;
43280;PMS5003;62175;49.416;8.690;2023-04-15T16:13:03;1;1;
43280;PMS5003;62175;49.416;8.690;2023-04-15T16:15:30;1;1;
43280;PMS5003;62175;49.416;8.690;2023-04-15T16:17:57;1;1;
43280;PMS5003;62175;49.416;8.690;2023-04-15T16:20:24;1;1;
43280;PMS5003;62175;49.416;8.690;2023-04-15T16:22:52;2;2;
43280;PMS5003;62175;49.416;8.690;2023-04-15T16:25:19;2;2;
43280;PMS5003;62175;49.416;8.690;2023-04-15T16:27:46;2;2;
43280;PMS5003;62175;49.416;8.690;2023-04-15T16:30:13;2;2;
43280;PMS5003;62175;49.416;8.690;2023-04-15T16:32:40;2;2;
43280;PMS5003;62175;49.416;8.690;2023-04-15T16:35:08;3;3;
43280;PMS5003;62175;49.416;8.690;2023-04-15T16:37:36;1;1;
43280;PMS5003;62175;49.416;8.690;2023-04-15T16:40:05;1;1;
43280;PMS5003;62175;49.416;8.690;2023-04-15T16:42:34;2;2;
43280;PMS5003;62175;49.416;8.690;2023-04-15T16:45:01;2;2;
43280;PMS5003;62175;49.416;8.690;2023-04-15T16:47:29;1;1;
43280;PMS5003;62175;49.416;8.690;2023-04-15T16:49:56;1;1;